Time;durP1;ratioP1;P1;durP2;ratioP2;P2;SDS_P1;SDS_P2;PMS_P1;PMS_P2;Temp;Humidity;BMP_temperature;BMP_pressure;BME280_temperature;BME280_humidity;BME280_pressure;Samples;Min_cycle;Max_cycle;Signal;HPM_P1;HPM_P2
2021/12/12 00:02:44;;;;;;;96.72;34.13;;;3.70;99.90;;;;;;4978687;28;20136;-91
2021/12/12 00:05:15;;;;;;;105.05;36.72;;;3.80;99.90;;;;;;5011490;28;20046;-91
2021/12/12 00:07:41;;;;;;;101.50;36.63;;;3.70;99.90;;;;;;5011667;28;20420;-90
2021/12/12 00:10:14;;;;;;;102.55;35.28;;;3.70;99.90;;;;;;4995032;28;20074;-91
2021/12/12 00:12:46;;;;;;;83.35;33.45;;;3.70;99.90;;;;;;5011369;28;20069;-91
2021/12/12 00:15:13;;;;;;;97.45;35.20;;;3.70;99.90;;;;;;4994768;28;20053;-90
2021/12/12 00:17:39;;;;;;;94.03;33.88;;;3.70;99.90;;;;;;5027888;28;20489;-91
2021/12/12 00:20:07;;;;;;;95.55;37.03;;;3.70;99.90;;;;;;4995667;28;20045;-90
2021/12/12 00:22:33;;;;;;;105.82;36.05;;;3.70;99.90;;;;;;4994785;28;20046;-91
2021/12/12 00:24:59;;;;;;;104.25;37.33;;;3.70;99.90;;;;;;5011373;28;20069;-91
2021/12/12 00:27:25;;;;;;;85.80;35.65;;;3.70;99.90;;;;;;4994867;28;20050;-91
2021/12/12 00:29:52;;;;;;;109.32;37.25;;;3.70;99.90;;;;;;5010528;28;20396;-90
2021/12/12 00:32:19;;;;;;;84.03;32.47;;;3.70;99.90;;;;;;5011042;28;20498;-91
2021/12/12 00:34:53;;;;;;;93.32;34.97;;;3.70;99.90;;;;;;5027942;28;20093;-91
2021/12/12 00:37:20;;;;;;;95.63;34.30;;;3.80;99.90;;;;;;5027529;28;20073;-92
2021/12/12 00:39:51;;;;;;;101.60;34.72;;;3.80;99.90;;;;;;5027300;28;20069;-91
2021/12/12 00:42:24;;;;;;;81.07;32.38;;;3.80;99.90;;;;;;5026967;28;20042;-91
2021/12/12 00:44:55;;;;;;;95.80;35.00;;;3.80;99.90;;;;;;4978390;28;20093;-91
2021/12/12 00:47:21;;;;;;;;;;;3.80;99.90;;;;;;4995630;28;20042;-90
2021/12/12 00:49:48;;;;;;;81.72;32.38;;;3.80;99.90;;;;;;4994320;28;20418;-91
2021/12/12 00:52:16;;;;;;;82.55;32.95;;;4.40;99.90;;;;;;5010676;28;20046;-91
2021/12/12 00:54:43;;;;;;;84.93;32.47;;;3.90;99.90;;;;;;5027170;28;20090;-90
2021/12/12 00:57:12;;;;;;;79.45;32.72;;;3.90;99.90;;;;;;5026864;28;20149;-91
2021/12/12 00:59:38;;;;;;;85.57;32.90;;;3.90;99.90;;;;;;4994499;28;20050;-90
2021/12/12 01:02:07;;;;;;;87.15;32.40;;;3.90;99.90;;;;;;5010411;28;20128;-91
2021/12/12 01:04:38;;;;;;;96.13;33.75;;;3.90;99.90;;;;;;5027112;28;20385;-91
2021/12/12 01:07:11;;;;;;;78.15;31.00;;;4.20;99.90;;;;;;5027029;28;20038;-91
2021/12/12 01:09:50;;;;;;;74.35;31.10;;;3.90;99.90;;;;;;5026731;28;20444;-91
2021/12/12 01:12:19;;;;;;;78.82;29.73;;;4.00;99.90;;;;;;5010237;28;20129;-90
2021/12/12 01:14:52;;;;;;;76.70;31.35;;;4.40;99.90;;;;;;5026828;28;20089;-90
2021/12/12 01:17:23;;;;;;;75.15;29.20;;;4.00;99.90;;;;;;4994756;28;20403;-91
2021/12/12 01:19:55;;;;;;;75.10;27.85;;;4.00;99.90;;;;;;5026228;28;20457;-90
2021/12/12 01:22:35;;;;;;;69.03;28.27;;;4.00;99.90;;;;;;5026174;28;20043;-92
2021/12/12 01:25:15;;;;;;;66.00;28.83;;;4.20;99.90;;;;;;5026919;28;20404;-91
2021/12/12 01:27:41;;;;;;;67.80;26.98;;;4.10;99.90;;;;;;4993787;28;20382;-92
2021/12/12 01:30:10;;;;;;;54.22;24.67;;;4.10;99.90;;;;;;5026695;28;20126;-90
2021/12/12 01:32:37;;;;;;;67.18;27.40;;;4.10;99.90;;;;;;4993469;28;20054;-91
2021/12/12 01:35:13;;;;;;;58.58;26.35;;;4.30;99.90;;;;;;5026676;28;20061;-91
2021/12/12 01:37:42;;;;;;;56.03;24.48;;;4.20;99.90;;;;;;5026690;28;20049;-91
2021/12/12 01:40:17;;;;;;;57.80;25.38;;;4.20;99.90;;;;;;5026691;28;20125;-91
2021/12/12 01:42:47;;;;;;;68.13;25.30;;;4.20;99.90;;;;;;5009742;28;20114;-92
2021/12/12 01:45:25;;;;;;;65.17;27.07;;;4.20;99.90;;;;;;5026244;28;20073;-91
2021/12/12 01:48:04;;;;;;;73.80;27.90;;;4.20;99.90;;;;;;5026761;28;20069;-91
2021/12/12 01:50:40;;;;;;;65.90;26.63;;;4.20;99.90;;;;;;5025972;28;20505;-92
2021/12/12 01:53:09;;;;;;;70.20;26.08;;;4.20;99.90;;;;;;5009776;28;20062;-91
2021/12/12 01:55:45;;;;;;;48.75;21.95;;;4.20;99.90;;;;;;5009929;28;20084;-91
2021/12/12 01:58:18;;;;;;;55.92;23.60;;;4.20;99.90;;;;;;5026743;28;20152;-92
2021/12/12 02:00:49;;;;;;;55.15;22.67;;;4.30;99.90;;;;;;4977693;28;20053;-91
2021/12/12 02:03:19;;;;;;;61.45;25.13;;;4.30;99.90;;;;;;5026160;28;20046;-92
2021/12/12 02:05:45;;;;;;;60.72;24.55;;;4.30;99.90;;;;;;5010101;28;20086;-92
2021/12/12 02:08:16;;;;;;;67.28;25.83;;;4.30;99.90;;;;;;5009839;28;20065;-93
2021/12/12 02:10:50;;;;;;;65.97;24.42;;;4.40;99.90;;;;;;5026545;28;20055;-94
2021/12/12 02:13:18;;;;;;;63.33;24.92;;;4.20;99.90;;;;;;5010408;28;20301;-94
2021/12/12 02:15:47;;;;;;;68.18;26.27;;;4.20;99.90;;;;;;4977940;28;20101;-95
2021/12/12 02:18:16;;;;;;;66.03;25.60;;;4.20;99.90;;;;;;5026762;28;20515;-95
2021/12/12 02:21:04;;;;;;;64.63;24.95;;;4.20;99.90;;;;;;5009980;28;20634;-94
2021/12/12 02:23:43;;;;;;;65.63;25.83;;;4.20;99.90;;;;;;5009880;28;20077;-95
2021/12/12 02:37:10;;;;;;;79.75;26.85;;;4.20;99.90;;;;;;5030373;28;20047;-95
2021/12/12 02:39:38;;;;;;;68.25;23.38;;;4.30;99.90;;;;;;4997755;28;20050;-94
2021/12/12 02:42:08;;;;;;;65.38;25.45;;;4.20;99.90;;;;;;5013618;28;20045;-96
2021/12/12 02:44:36;;;;;;;63.20;24.70;;;4.20;99.90;;;;;;5030316;28;20065;-94
2021/12/12 02:47:12;;;;;;;67.20;24.23;;;4.60;99.90;;;;;;5013891;28;20089;-94
2021/12/12 02:49:54;;;;;;;68.50;25.15;;;4.20;99.90;;;;;;5013507;28;20047;-94
2021/12/12 02:52:27;;;;;;;72.93;24.15;;;4.20;99.90;;;;;;5013425;28;20069;-95
2021/12/12 02:54:56;;;;;;;62.97;23.52;;;4.20;99.90;;;;;;5013586;28;20493;-95
2021/12/12 02:57:21;;;;;;;69.28;23.90;;;4.10;99.90;;;;;;5029903;28;20473;-95
2021/12/12 02:59:50;;;;;;;59.45;22.23;;;4.20;99.90;;;;;;4981339;28;20054;-92
2021/12/12 03:02:25;;;;;;;65.47;22.83;;;4.10;99.90;;;;;;5013846;28;20038;-95
2021/12/12 03:04:51;;;;;;;57.92;20.90;;;4.10;99.90;;;;;;5013437;28;20074;-95
2021/12/12 03:07:17;;;;;;;48.88;20.30;;;4.20;99.90;;;;;;5013264;28;20408;-96
2021/12/12 03:09:46;;;;;;;57.28;23.00;;;4.20;99.90;;;;;;5013907;28;20050;-95
2021/12/12 03:12:30;;;;;;;56.72;21.80;;;4.20;99.90;;;;;;5030359;28;20050;-95
2021/12/12 03:14:58;;;;;;;45.90;21.23;;;4.20;99.90;;;;;;5029463;28;20054;-95
2021/12/12 03:17:24;;;;;;;52.10;22.85;;;4.40;99.90;;;;;;5013210;28;20050;-95
2021/12/12 03:19:53;;;;;;;60.47;22.00;;;4.20;99.90;;;;;;5012785;28;20121;-95
2021/12/12 03:22:20;;;;;;;62.00;20.08;;;4.20;99.90;;;;;;5012809;28;20050;-96
2021/12/12 03:24:47;;;;;;;56.60;20.77;;;4.00;99.90;;;;;;5013013;28;20522;-93
2021/12/12 03:27:13;;;;;;;63.53;21.73;;;4.40;99.90;;;;;;4980536;28;20050;-95
2021/12/12 03:29:40;;;;;;;57.33;21.23;;;4.40;99.90;;;;;;5012802;28;20046;-95
2021/12/12 03:32:12;;;;;;;57.15;19.98;;;4.30;99.90;;;;;;5012589;28;20137;-95
2021/12/12 03:34:43;;;;;;;48.63;19.92;;;4.30;99.90;;;;;;5012768;28;20097;-94
2021/12/12 03:37:11;;;;;;;54.30;20.37;;;4.10;99.90;;;;;;4979788;28;20046;-94
2021/12/12 03:39:40;;;;;;;59.55;21.30;;;4.30;99.90;;;;;;5029344;28;20042;-94
2021/12/12 03:42:15;;;;;;;59.75;20.08;;;4.70;99.90;;;;;;5029007;28;20259;-94
2021/12/12 03:44:43;;;;;;;66.10;21.30;;;4.10;99.90;;;;;;5011944;28;20053;-95
2021/12/12 03:47:20;;;;;;;65.47;21.33;;;4.30;99.90;;;;;;5012155;28;20047;-95
2021/12/12 03:49:48;;;;;;;52.55;18.88;;;4.40;99.90;;;;;;4979759;28;20096;-93
2021/12/12 03:52:15;;;;;;;55.60;20.52;;;4.30;99.90;;;;;;5012102;28;20050;-94
2021/12/12 03:55:13;;;;;;;54.45;21.17;;;4.50;99.90;;;;;;5012351;28;20065;-95
2021/12/12 03:57:40;;;;;;;54.13;21.08;;;4.40;99.90;;;;;;5012255;28;20054;-92
2021/12/12 04:00:12;;;;;;;56.33;18.88;;;4.40;99.90;;;;;;5028945;28;20076;-94
2021/12/12 04:02:38;;;;;;;54.90;20.05;;;4.40;99.90;;;;;;5012253;28;20050;-93
2021/12/12 04:05:05;;;;;;;49.20;19.23;;;4.50;99.90;;;;;;5028601;28;20042;-95
2021/12/12 04:07:32;;;;;;;51.38;19.17;;;4.50;99.90;;;;;;5012379;28;20073;-95
2021/12/12 04:09:59;;;;;;;50.03;18.88;;;4.60;99.90;;;;;;5012333;28;20133;-93
2021/12/12 04:12:25;;;;;;;55.40;20.08;;;4.50;99.90;;;;;;5028255;28;20057;-95
2021/12/12 04:14:53;;;;;;;56.08;20.92;;;4.60;99.90;;;;;;5012127;28;20412;-95
2021/12/12 04:17:23;;;;;;;54.58;20.35;;;5.00;99.90;;;;;;5012123;28;20059;-94
2021/12/12 04:19:52;;;;;;;53.33;20.38;;;4.50;99.90;;;;;;5011964;28;20047;-94
2021/12/12 04:22:19;;;;;;;44.15;17.92;;;4.50;99.90;;;;;;5012589;28;20043;-94
2021/12/12 04:24:49;;;;;;;51.63;19.25;;;4.50;99.90;;;;;;5028016;28;20184;-94
2021/12/12 04:27:16;;;;;;;38.33;18.67;;;4.60;99.90;;;;;;5011878;28;20480;-93
2021/12/12 04:29:46;;;;;;;53.65;18.98;;;4.60;99.90;;;;;;5029029;28;20481;-93
2021/12/12 04:32:17;;;;;;;46.70;19.27;;;4.60;99.90;;;;;;5028890;28;20056;-96
2021/12/12 04:35:06;;;;;;;41.60;17.80;;;4.60;99.90;;;;;;4996849;28;20054;-93
2021/12/12 04:37:32;;;;;;;57.40;20.10;;;4.60;99.90;;;;;;4996103;28;20042;-95
2021/12/12 04:39:58;;;;;;;38.58;16.63;;;4.70;99.90;;;;;;4980403;28;20496;-96
2021/12/12 04:42:36;;;;;;;42.33;17.75;;;4.60;99.90;;;;;;5029947;28;20043;-94
2021/12/12 04:45:30;;;;;;;49.15;18.40;;;4.70;99.90;;;;;;5013935;28;20467;-93
2021/12/12 04:50:59;;;;;;;48.80;17.85;;;4.70;99.90;;;;;;5010193;28;20053;-96
2021/12/12 04:53:33;;;;;;;40.75;16.70;;;4.70;99.90;;;;;;4995957;28;20062;-95
2021/12/12 04:56:33;;;;;;;40.05;16.50;;;4.80;99.90;;;;;;5015804;28;20093;-95
2021/12/12 04:59:19;;;;;;;40.37;16.97;;;4.70;99.90;;;;;;4980106;28;20043;-96
2021/12/12 05:02:15;;;;;;;33.10;15.00;;;4.80;99.90;;;;;;4995661;28;20047;-95
2021/12/12 05:04:59;;;;;;;36.75;14.82;;;4.80;99.90;;;;;;4991818;28;20058;-95
2021/12/12 05:07:30;;;;;;;34.88;15.07;;;4.80;99.90;;;;;;4978051;28;20043;-96
2021/12/12 05:10:11;;;;;;;28.67;13.52;;;4.80;99.90;;;;;;4987196;28;20105;-95
2021/12/12 05:12:45;;;;;;;31.90;14.75;;;4.80;99.90;;;;;;4963778;28;20146;-95
2021/12/12 05:15:19;;;;;;;25.35;12.38;;;5.10;99.90;;;;;;4943647;28;20058;-95
2021/12/12 05:17:56;;;;;;;32.88;15.23;;;4.90;99.90;;;;;;4958733;28;20051;-94
2021/12/12 05:20:37;;;;;;;26.73;12.65;;;4.90;99.90;;;;;;4976421;28;20058;-95
2021/12/12 05:23:06;;;;;;;30.40;13.27;;;4.90;99.90;;;;;;4973903;28;20416;-92
2021/12/12 05:25:43;;;;;;;20.63;10.38;;;4.90;99.90;;;;;;4943906;29;20110;-94
2021/12/12 05:28:10;;;;;;;22.08;11.43;;;5.20;99.90;;;;;;4923691;28;20059;-96
2021/12/12 05:30:38;;;;;;;21.33;10.38;;;5.00;99.90;;;;;;4939144;29;20421;-95
2021/12/12 05:33:06;;;;;;;23.60;10.93;;;5.00;99.90;;;;;;4940822;29;20055;-96
2021/12/12 05:35:35;;;;;;;26.73;11.82;;;5.10;99.90;;;;;;4972038;28;20389;-96
2021/12/12 05:38:01;;;;;;;24.38;11.82;;;5.10;99.90;;;;;;5012763;28;20078;-94
2021/12/12 05:40:30;;;;;;;18.30;10.63;;;5.10;99.90;;;;;;5013066;28;20054;-93
2021/12/12 05:42:59;;;;;;;26.88;12.07;;;5.10;99.90;;;;;;5027062;28;20097;-95
2021/12/12 05:45:30;;;;;;;26.55;11.45;;;5.10;99.90;;;;;;5029351;28;20049;-95
2021/12/12 05:47:56;;;;;;;;;;;5.10;99.90;;;;;;5028891;28;20070;-95
2021/12/12 05:50:23;;;;;;;26.90;11.43;;;5.10;99.90;;;;;;5010893;28;19922;-96
2021/12/12 05:52:54;;;;;;;27.30;12.73;;;5.20;99.90;;;;;;5010690;28;20043;-94
2021/12/12 05:55:22;;;;;;;25.80;12.40;;;5.20;99.90;;;;;;4994393;28;20058;-95
2021/12/12 05:57:53;;;;;;;279.27;51.78;;;5.20;99.90;;;;;;4979170;28;20046;-95
2021/12/12 06:00:24;;;;;;;312.15;25.40;;;5.20;99.90;;;;;;5011026;28;20523;-93
2021/12/12 06:02:50;;;;;;;24.33;11.80;;;5.20;99.90;;;;;;5027416;28;20089;-93
2021/12/12 06:05:16;;;;;;;22.25;11.15;;;5.30;99.90;;;;;;4994475;28;20050;-93
2021/12/12 06:07:42;;;;;;;164.82;16.85;;;5.30;99.90;;;;;;5014786;28;20047;-94
2021/12/12 06:10:12;;;;;;;26.13;11.07;;;5.30;99.90;;;;;;4983925;28;20046;-96
2021/12/12 06:12:38;;;;;;;20.83;11.32;;;5.30;99.90;;;;;;5033643;28;20114;-96
2021/12/12 06:15:08;;;;;;;29.20;12.63;;;5.30;99.90;;;;;;5015729;28;20059;-95
2021/12/12 06:17:35;;;;;;;40.45;13.05;;;5.30;99.90;;;;;;5016543;28;20053;-95
2021/12/12 06:20:02;;;;;;;25.15;12.38;;;5.30;99.90;;;;;;5015733;28;20100;-96
2021/12/12 06:22:28;;;;;;;21.10;11.88;;;5.30;99.90;;;;;;5016660;28;20088;-96
2021/12/12 06:24:54;;;;;;;25.45;12.48;;;5.30;99.90;;;;;;5035131;28;20058;-95
2021/12/12 06:27:22;;;;;;;39.03;13.40;;;5.30;99.90;;;;;;5031961;28;20385;-95
2021/12/12 06:29:54;;;;;;;37.30;11.98;;;5.40;99.90;;;;;;5032025;28;20046;-95
2021/12/12 06:32:20;;;;;;;30.70;12.68;;;5.40;99.90;;;;;;5016110;28;20053;-95
2021/12/12 06:34:47;;;;;;;30.25;13.63;;;5.40;99.90;;;;;;5032227;28;20046;-95
2021/12/12 06:37:13;;;;;;;44.50;14.25;;;5.50;99.90;;;;;;5032492;28;20050;-94
2021/12/12 06:39:40;;;;;;;52.72;14.90;;;5.40;99.90;;;;;;5015721;28;20062;-93
2021/12/12 06:42:07;;;;;;;27.00;13.57;;;5.40;99.90;;;;;;5032072;28;20046;-95
2021/12/12 06:44:38;;;;;;;30.73;13.77;;;5.40;99.90;;;;;;4982767;28;20065;-95
2021/12/12 06:47:04;;;;;;;30.75;14.13;;;5.40;99.90;;;;;;5031259;28;20054;-95
2021/12/12 06:49:31;;;;;;;33.58;14.30;;;5.40;99.90;;;;;;5014590;28;20141;-96
2021/12/12 06:51:59;;;;;;;28.60;13.30;;;5.50;99.90;;;;;;4998332;28;20054;-94
2021/12/12 06:54:27;;;;;;;29.30;14.30;;;5.40;99.90;;;;;;5030734;28;20050;-96
2021/12/12 06:56:57;;;;;;;30.70;14.30;;;5.50;99.90;;;;;;5014273;28;20043;-96
2021/12/12 06:59:26;;;;;;;29.88;14.80;;;5.50;99.90;;;;;;5014674;28;20046;-95
2021/12/12 07:01:52;;;;;;;28.52;13.60;;;5.60;99.90;;;;;;5013164;28;20042;-95
2021/12/12 07:04:20;;;;;;;47.10;15.93;;;5.50;99.90;;;;;;5030766;28;20432;-94
2021/12/12 07:06:48;;;;;;;31.40;13.93;;;5.50;99.90;;;;;;5014706;28;20061;-96
2021/12/12 07:09:16;;;;;;;44.35;16.17;;;5.60;99.90;;;;;;5018085;28;20054;-96
2021/12/12 07:11:46;;;;;;;44.10;16.52;;;5.60;99.90;;;;;;5017629;28;20113;-96
2021/12/12 07:14:15;;;;;;;30.83;14.38;;;5.60;99.90;;;;;;5022334;28;20488;-96
2021/12/12 07:16:45;;;;;;;35.97;15.70;;;5.60;99.90;;;;;;5042340;28;20088;-96
2021/12/12 07:19:17;;;;;;;42.13;16.85;;;5.60;99.90;;;;;;5043956;28;20038;-96
2021/12/12 07:21:47;;;;;;;38.45;15.25;;;5.70;99.90;;;;;;5032275;28;20074;-96
2021/12/12 07:24:21;;;;;;;33.37;14.57;;;5.70;99.90;;;;;;5041446;28;20042;-96
2021/12/12 07:26:47;;;;;;;26.70;13.10;;;5.70;99.90;;;;;;5021492;28;20077;-96
2021/12/12 07:29:14;;;;;;;426.10;44.13;;;5.80;99.90;;;;;;5035920;28;20042;-96
2021/12/12 07:31:41;;;;;;;48.22;16.33;;;5.90;99.90;;;;;;5003754;28;20110;-96
2021/12/12 07:34:13;;;;;;;40.47;15.45;;;5.60;99.90;;;;;;5018275;28;20103;-96
2021/12/12 07:36:52;;;;;;;40.28;14.63;;;5.60;99.90;;;;;;4989556;28;20057;-96
2021/12/12 07:39:23;;;;;;;60.72;17.73;;;5.70;99.90;;;;;;5009649;28;20082;-96
2021/12/12 07:41:51;;;;;;;306.00;28.13;;;5.90;99.90;;;;;;5025109;28;20042;-96
2021/12/12 07:44:21;;;;;;;1262.78;232.55;;;5.90;99.90;;;;;;4997713;28;20090;-96
2021/12/12 07:46:48;;;;;;;1718.63;193.05;;;5.80;99.90;;;;;;4983898;28;20133;-95
2021/12/12 07:49:25;;;;;;;49.60;17.88;;;5.80;99.90;;;;;;4985130;28;20046;-96
2021/12/12 07:51:51;;;;;;;46.03;17.05;;;5.90;99.90;;;;;;5015772;28;20058;-96
2021/12/12 07:54:17;;;;;;;35.65;15.52;;;6.00;99.90;;;;;;4999671;28;20057;-96
2021/12/12 07:56:44;;;;;;;72.55;19.10;;;5.90;99.90;;;;;;5017591;28;20050;-96
2021/12/12 07:59:10;;;;;;;1271.75;301.45;;;5.90;99.90;;;;;;5015789;28;20116;-96
2021/12/12 08:01:40;;;;;;;43.10;16.85;;;6.10;99.90;;;;;;4997817;28;20405;-96
2021/12/12 08:04:06;;;;;;;45.50;15.95;;;5.60;99.90;;;;;;5013675;28;20489;-95
2021/12/12 08:06:32;;;;;;;38.45;16.25;;;6.00;99.90;;;;;;5028859;28;20515;-96
2021/12/12 08:08:58;;;;;;;47.20;17.35;;;6.10;99.90;;;;;;5032396;28;20046;-96
2021/12/12 08:11:28;;;;;;;54.00;18.42;;;6.20;99.90;;;;;;5000855;28;20108;-96
2021/12/12 08:13:56;;;;;;;41.60;16.77;;;6.40;99.90;;;;;;5009120;28;20124;-95
2021/12/12 08:16:22;;;;;;;37.28;15.85;;;6.10;99.90;;;;;;5000836;28;20107;-96
2021/12/12 08:18:48;;;;;;;50.53;17.75;;;6.20;99.90;;;;;;5018295;28;20038;-95
2021/12/12 08:21:16;;;;;;;61.67;18.83;;;6.70;99.90;;;;;;5018516;28;20052;-96
2021/12/12 08:23:43;;;;;;;39.33;15.88;;;6.50;99.90;;;;;;5017776;28;20046;-93
2021/12/12 08:26:10;;;;;;;54.78;18.00;;;6.00;99.90;;;;;;5016019;28;20042;-95
2021/12/12 08:28:38;;;;;;;80.80;19.88;;;6.70;99.90;;;;;;5018937;28;20058;-94
2021/12/12 08:31:04;;;;;;;46.45;16.67;;;6.50;99.90;;;;;;5033146;28;20058;-95
2021/12/12 08:33:31;;;;;;;51.00;18.17;;;6.90;99.90;;;;;;4998890;28;20503;-94
2021/12/12 08:35:58;;;;;;;46.50;17.77;;;6.10;99.90;;;;;;5016863;28;20038;-95
2021/12/12 08:38:24;;;;;;;47.97;16.90;;;6.50;99.90;;;;;;5019487;28;20105;-95
2021/12/12 08:40:53;;;;;;;37.88;15.43;;;6.50;99.90;;;;;;5016129;28;20081;-93
2021/12/12 08:43:22;;;;;;;49.90;17.20;;;6.80;99.90;;;;;;5015064;28;20049;-95
2021/12/12 08:45:55;;;;;;;30.55;14.00;;;6.70;99.90;;;;;;4999605;28;20046;-96
2021/12/12 08:48:25;;;;;;;44.65;16.52;;;6.70;99.90;;;;;;5014979;28;20132;-95
2021/12/12 08:50:55;;;;;;;38.50;14.73;;;6.70;99.90;;;;;;5015390;28;20506;-93
2021/12/12 08:53:22;;;;;;;33.33;15.27;;;6.60;99.90;;;;;;5015397;28;20133;-95
2021/12/12 08:55:52;;;;;;;42.50;16.45;;;6.80;99.90;;;;;;5015682;28;20400;-96
2021/12/12 08:58:23;;;;;;;34.05;14.25;;;6.60;99.90;;;;;;5015562;28;20377;-94
2021/12/12 09:01:00;;;;;;;60.97;20.42;;;6.70;99.90;;;;;;5015507;28;20506;-95
2021/12/12 09:03:41;;;;;;;36.35;15.68;;;6.70;99.90;;;;;;4999114;28;20052;-95
2021/12/12 09:06:10;;;;;;;41.50;16.38;;;6.70;99.90;;;;;;5015462;28;20079;-96
2021/12/12 09:08:43;;;;;;;49.33;17.63;;;6.70;99.90;;;;;;5015015;28;20042;-96
2021/12/12 09:11:22;;;;;;;35.63;15.82;;;6.80;99.90;;;;;;5014756;28;20045;-95
2021/12/12 09:13:55;;;;;;;46.35;17.27;;;6.80;99.90;;;;;;5000134;28;20053;-96
2021/12/12 09:16:26;;;;;;;63.40;19.92;;;6.80;99.90;;;;;;5015379;28;20119;-95
2021/12/12 09:18:58;;;;;;;48.65;17.02;;;6.80;99.90;;;;;;5015527;28;20042;-95
2021/12/12 09:21:52;;;;;;;47.00;17.90;;;6.90;99.90;;;;;;5015127;28;20042;-96
2021/12/12 09:24:21;;;;;;;59.95;20.13;;;6.90;99.90;;;;;;4996907;28;20053;-96
2021/12/12 09:26:51;;;;;;;45.58;17.92;;;7.00;99.90;;;;;;4998020;28;20065;-96
2021/12/12 09:29:33;;;;;;;42.28;16.55;;;7.00;99.90;;;;;;4982913;28;20463;-96
2021/12/12 09:32:08;;;;;;;43.10;17.92;;;7.40;99.90;;;;;;4982895;28;20615;-96
2021/12/12 09:34:43;;;;;;;49.08;19.33;;;7.00;99.90;;;;;;4997638;28;20050;-96
2021/12/12 09:37:25;;;;;;;41.30;16.35;;;7.10;99.90;;;;;;4983455;28;20551;-96
2021/12/12 09:40:20;;;;;;;38.97;16.08;;;7.10;99.90;;;;;;5002936;28;20124;-95
2021/12/12 09:42:54;;;;;;;34.38;15.95;;;7.10;99.90;;;;;;4981396;28;20444;-96
2021/12/12 09:45:47;;;;;;;52.40;19.02;;;7.20;99.90;;;;;;4996853;28;20598;-96
2021/12/12 09:51:42;;;;;;;42.65;17.00;;;7.20;99.90;;;;;;4997229;28;20050;-93
2021/12/12 09:54:34;;;;;;;47.83;17.83;;;7.20;99.90;;;;;;4996848;28;20050;-96
2021/12/12 09:57:05;;;;;;;36.90;15.23;;;7.20;99.90;;;;;;4997357;28;20129;-93
2021/12/12 09:59:56;;;;;;;49.08;17.63;;;7.40;99.90;;;;;;4996870;28;20089;-96
2021/12/12 10:02:28;;;;;;;46.50;17.25;;;7.30;99.90;;;;;;5013453;28;20089;-94
2021/12/12 10:05:19;;;;;;;53.65;18.08;;;7.30;99.90;;;;;;5000020;28;20052;-96
2021/12/12 10:08:00;;;;;;;43.00;16.48;;;7.40;99.90;;;;;;5007496;28;20065;-96
2021/12/12 10:11:08;;;;;;;48.25;17.05;;;7.40;99.90;;;;;;5023742;28;20104;-96
2021/12/12 10:13:33;;;;;;;51.55;17.80;;;7.40;99.90;;;;;;4994739;28;20146;-96
2021/12/12 10:16:14;;;;;;;40.88;16.10;;;7.40;99.90;;;;;;5010308;28;20054;-96
2021/12/12 10:18:52;;;;;;;58.45;18.65;;;7.50;99.90;;;;;;5007873;28;20057;-96
2021/12/12 10:21:44;;;;;;;48.25;16.73;;;7.50;99.90;;;;;;5008281;28;20050;-96
2021/12/12 10:24:25;;;;;;;41.88;17.00;;;7.50;99.90;;;;;;4989000;28;20053;-96
2021/12/12 10:27:15;;;;;;;43.38;16.83;;;7.50;99.90;;;;;;5007234;28;20137;-96
2021/12/12 10:30:02;;;;;;;49.10;17.52;;;7.60;99.90;;;;;;5004818;28;20061;-96
2021/12/12 10:32:32;;;;;;;54.47;18.27;;;7.60;99.90;;;;;;5003864;28;20113;-96
2021/12/12 10:35:21;;;;;;;47.92;17.40;;;7.70;99.90;;;;;;4985700;28;20138;-96
2021/12/12 10:37:58;;;;;;;48.63;21.63;;;7.70;99.90;;;;;;5002288;28;20058;-96
2021/12/12 10:40:45;;;;;;;50.20;17.63;;;7.70;99.90;;;;;;4986564;28;20053;-96
2021/12/12 10:43:13;;;;;;;60.13;17.45;;;7.70;99.90;;;;;;5001342;28;20569;-96
2021/12/12 10:45:49;;;;;;;38.17;16.05;;;7.80;99.90;;;;;;4987877;28;20046;-96
2021/12/12 10:48:18;;;;;;;44.33;16.60;;;7.80;99.90;;;;;;4989999;28;20073;-96
2021/12/12 10:51:00;;;;;;;41.10;15.60;;;7.90;99.90;;;;;;5000358;28;20436;-96
2021/12/12 10:53:34;;;;;;;50.30;16.40;;;7.90;99.90;;;;;;5024706;28;20062;-95
2021/12/12 10:56:14;;;;;;;75.72;18.77;;;7.90;99.90;;;;;;5018489;28;20066;-95
2021/12/12 10:58:46;;;;;;;45.67;17.13;;;7.90;99.90;;;;;;5017525;28;20519;-95
2021/12/12 11:01:17;;;;;;;43.60;16.02;;;7.90;99.90;;;;;;5001105;28;20053;-95
2021/12/12 11:04:12;;;;;;;62.53;18.70;;;7.90;99.90;;;;;;5017609;28;20053;-94
2021/12/12 11:06:42;;;;;;;44.88;15.98;;;8.10;99.90;;;;;;5001337;28;20050;-93
2021/12/12 11:09:20;;;;;;;47.45;15.45;;;8.10;99.90;;;;;;4983781;28;20500;-95
2021/12/12 11:11:51;;;;;;;44.50;16.30;;;8.00;99.90;;;;;;5000225;28;20100;-95
2021/12/12 11:14:24;;;;;;;43.90;14.93;;;8.00;99.90;;;;;;4984064;28;20045;-95
2021/12/12 11:16:53;;;;;;;34.08;14.38;;;8.10;99.90;;;;;;5000392;28;20041;-91
2021/12/12 11:19:34;;;;;;;48.95;16.85;;;8.00;99.90;;;;;;5001321;28;20041;-96
2021/12/12 11:22:14;;;;;;;60.78;16.92;;;8.20;99.90;;;;;;5000455;28;20423;-96
2021/12/12 11:24:47;;;;;;;38.20;14.35;;;7.90;99.90;;;;;;5002253;28;20054;-95
2021/12/12 11:27:16;;;;;;;32.75;14.05;;;8.20;99.90;;;;;;4984351;28;20060;-95
2021/12/12 11:29:51;;;;;;;39.25;14.82;;;8.10;99.90;;;;;;4999678;28;20076;-95
2021/12/12 11:32:26;;;;;;;43.38;14.70;;;8.20;99.90;;;;;;5003386;28;20060;-95
2021/12/12 11:34:56;;;;;;;40.67;15.13;;;8.20;99.90;;;;;;5004264;28;20051;-95
2021/12/12 11:37:48;;;;;;;35.00;14.40;;;8.30;99.90;;;;;;4986489;28;20053;-96
2021/12/12 11:40:22;;;;;;;52.38;15.93;;;8.50;99.90;;;;;;5003707;28;20042;-94
2021/12/12 11:43:04;;;;;;;36.70;14.07;;;8.20;99.90;;;;;;5001051;28;20049;-95
2021/12/12 11:45:38;;;;;;;53.38;16.13;;;8.20;99.90;;;;;;5005198;28;20046;-96
2021/12/12 11:48:29;;;;;;;39.85;15.55;;;8.30;99.90;;;;;;5004021;28;20046;-96
2021/12/12 11:51:01;;;;;;;34.40;13.52;;;8.40;99.90;;;;;;5019721;28;20050;-95
2021/12/12 11:53:47;;;;;;;38.92;14.98;;;8.30;99.90;;;;;;5001010;28;20133;-95
2021/12/12 11:56:27;;;;;;;40.70;14.80;;;8.70;99.90;;;;;;5000494;28;20077;-95
2021/12/12 11:59:05;;;;;;;37.58;15.15;;;8.30;99.90;;;;;;5016301;28;20045;-95
2021/12/12 12:01:46;;;;;;;50.40;15.82;;;8.40;99.90;;;;;;4999799;28;20045;-95
2021/12/12 12:04:36;;;;;;;37.42;14.50;;;8.40;99.90;;;;;;5016317;28;20042;-95
2021/12/12 12:07:09;;;;;;;44.25;15.07;;;8.40;99.90;;;;;;5000287;28;20049;-94
2021/12/12 12:10:01;;;;;;;44.35;15.05;;;8.40;99.90;;;;;;5002645;28;20050;-95
2021/12/12 12:12:40;;;;;;;35.22;13.98;;;8.50;99.90;;;;;;5000512;28;20049;-93
2021/12/12 12:15:25;;;;;;;52.30;15.63;;;8.60;99.90;;;;;;4999655;28;20049;-91
2021/12/12 12:18:02;;;;;;;38.08;14.27;;;8.50;99.90;;;;;;5014540;28;20050;-90
2021/12/12 12:20:40;;;;;;;32.35;13.73;;;8.60;99.90;;;;;;5015126;28;20067;-94
2021/12/12 12:23:17;;;;;;;45.50;15.70;;;8.60;99.90;;;;;;4998069;28;20088;-91
2021/12/12 12:28:47;;;;;;;43.45;16.00;;;8.60;99.90;;;;;;5014266;28;20149;-89
2021/12/12 12:31:34;;;;;;;40.38;14.93;;;8.70;99.90;;;;;;4997714;28;20240;-92
2021/12/12 12:34:37;;;;;;;66.57;18.70;;;8.70;99.90;;;;;;4997825;28;20148;-90
2021/12/12 12:37:25;;;;;;;41.05;14.98;;;8.70;99.90;;;;;;4998049;28;20148;-92
2021/12/12 12:40:29;;;;;;;45.53;15.20;;;8.80;99.90;;;;;;4998220;28;20045;-92
2021/12/12 12:43:29;;;;;;;43.15;15.02;;;8.80;99.90;;;;;;4995043;28;20050;-95
2021/12/12 12:46:29;;;;;;;43.77;15.33;;;8.80;99.90;;;;;;4953492;28;20062;-91
2021/12/12 12:49:31;;;;;;;46.42;15.55;;;8.90;99.90;;;;;;4929141;28;20082;-95
2021/12/12 12:52:22;;;;;;;52.22;15.95;;;8.90;99.90;;;;;;4985736;28;20048;-94
2021/12/12 12:54:59;;;;;;;43.92;15.68;;;8.90;99.90;;;;;;4997942;28;20513;-96
2021/12/12 12:57:38;;;;;;;33.35;14.13;;;9.40;99.90;;;;;;4972210;28;20090;-91
2021/12/12 13:00:10;;;;;;;32.75;15.07;;;9.40;99.90;;;;;;4951255;28;20066;-95
2021/12/12 13:03:02;;;;;;;47.90;17.73;;;9.10;99.90;;;;;;4969821;28;20055;-93
2021/12/12 13:05:52;;;;;;;51.80;17.55;;;9.20;99.90;;;;;;4970480;28;20062;-96
2021/12/12 13:09:03;;;;;;;40.15;16.70;;;9.20;99.90;;;;;;4988242;28;20087;-96
2021/12/12 13:11:34;;;;;;;65.07;18.73;;;9.30;99.90;;;;;;4972482;28;20043;-95
2021/12/12 13:14:30;;;;;;;40.03;15.90;;;9.40;99.90;;;;;;4963001;28;20050;-95
2021/12/12 13:17:09;;;;;;;49.30;17.98;;;9.30;99.90;;;;;;4969233;28;20164;-95
2021/12/12 13:20:09;;;;;;;47.05;17.92;;;9.40;99.90;;;;;;4961678;28;20146;-96
2021/12/12 13:23:07;;;;;;;54.35;18.65;;;9.40;99.90;;;;;;5033860;28;20062;-96
2021/12/12 13:25:39;;;;;;;64.43;19.83;;;9.40;99.90;;;;;;5020705;28;20041;-96
2021/12/12 13:28:30;;;;;;;55.63;19.10;;;9.40;99.90;;;;;;4998971;28;20042;-95
2021/12/12 13:31:00;;;;;;;;;;;9.50;99.90;;;;;;4995868;28;20042;-94
2021/12/12 13:34:04;;;;;;;59.15;19.83;;;9.50;99.90;;;;;;4979621;28;20383;-94